Time;durP1;ratioP1;P1;durP2;ratioP2;P2;SDS_P1;SDS_P2;PMS_P1;PMS_P2;Temp;Humidity;BMP_temperature;BMP_pressure;BME280_temperature;BME280_humidity;BME280_pressure;Samples;Min_cycle;Max_cycle;Signal;HPM_P1;HPM_P2
2023/06/15 14:55:24;;;;;;;4.40;2.80;;;28.30;53.30;;;;;;5090869;27;20308;-68
2023/06/15 14:57:49;;;;;;;6.93;3.30;;;28.10;53.60;;;;;;5053126;28;20281;-67
2023/06/15 15:00:16;;;;;;;3.20;2.92;;;27.90;53.40;;;;;;5068376;28;20086;-67
2023/06/15 15:02:41;;;;;;;6.07;3.05;;;27.70;53.60;;;;;;5070349;28;20025;-68
2023/06/15 15:05:07;;;;;;;5.15;2.92;;;27.60;53.80;;;;;;5070206;28;20027;-68
2023/06/15 15:07:33;;;;;;;4.90;2.60;;;27.60;53.90;;;;;;5065027;28;20458;-68
2023/06/15 15:10:01;;;;;;;3.00;2.78;;;27.60;52.80;;;;;;5054015;28;20040;-69
2023/06/15 15:12:28;;;;;;;4.85;2.70;;;27.80;52.00;;;;;;5050342;28;20106;-68
2023/06/15 15:14:58;;;;;;;3.78;2.70;;;28.00;51.30;;;;;;5067253;28;20113;-67
2023/06/15 15:17:23;;;;;;;4.60;2.60;;;28.20;50.70;;;;;;5075460;28;20482;-68
2023/06/15 15:19:49;;;;;;;4.70;2.83;;;28.40;50.40;;;;;;5067330;28;20111;-69
2023/06/15 15:22:14;;;;;;;3.92;3.25;;;28.60;50.60;;;;;;5058959;28;20021;-68
2023/06/15 15:24:40;;;;;;;4.45;2.83;;;28.80;51.20;;;;;;5061326;28;20104;-68
2023/06/15 15:27:05;;;;;;;5.07;2.90;;;28.90;51.60;;;;;;5060985;28;20025;-69
2023/06/15 15:29:31;;;;;;;7.07;5.10;;;29.00;52.00;;;;;;5076633;28;20017;-68
2023/06/15 15:31:57;;;;;;;4.70;2.90;;;29.20;51.80;;;;;;5064459;28;20035;-68
2023/06/15 15:34:23;;;;;;;6.47;3.78;;;29.60;50.40;;;;;;5065456;28;20025;-68
2023/06/15 15:36:48;;;;;;;5.50;3.38;;;29.70;49.70;;;;;;5065083;28;20355;-68
2023/06/15 15:39:15;;;;;;;3.13;2.60;;;29.50;51.70;;;;;;5063809;28;20020;-68
2023/06/15 15:41:41;;;;;;;3.33;2.70;;;29.30;52.80;;;;;;5082110;28;20025;-68
2023/06/15 15:44:06;;;;;;;4.03;2.50;;;29.00;53.20;;;;;;5088324;28;20383;-68
2023/06/15 15:46:32;;;;;;;3.30;3.00;;;28.60;53.50;;;;;;5077343;28;20035;-68
2023/06/15 15:48:57;;;;;;;4.38;2.78;;;28.30;53.80;;;;;;5067517;28;20519;-68
2023/06/15 15:51:23;;;;;;;3.40;2.70;;;28.20;53.80;;;;;;5068176;28;20036;-69
2023/06/15 15:53:49;;;;;;;3.88;2.95;;;27.90;54.10;;;;;;5075537;28;20098;-68
2023/06/15 15:56:14;;;;;;;8.38;3.15;;;27.70;54.30;;;;;;5088660;28;20144;-68
2023/06/15 15:58:40;;;;;;;4.00;3.10;;;27.50;54.70;;;;;;5089758;28;20024;-69
2023/06/15 16:01:05;;;;;;;4.68;3.08;;;27.40;54.80;;;;;;5087828;28;20024;-68
2023/06/15 16:03:31;;;;;;;3.30;3.00;;;27.30;55.20;;;;;;5073955;28;20073;-69
2023/06/15 16:05:56;;;;;;;5.65;4.35;;;27.30;54.90;;;;;;5061158;28;20397;-69
2023/06/15 16:08:23;;;;;;;7.53;5.13;;;27.30;54.90;;;;;;5058862;28;20478;-69
2023/06/15 16:10:49;;;;;;;4.35;3.30;;;27.40;54.80;;;;;;5075651;28;20503;-69
2023/06/15 16:13:15;;;;;;;5.25;3.10;;;27.40;54.60;;;;;;5078246;28;20063;-68
2023/06/15 16:15:40;;;;;;;3.85;3.22;;;27.30;54.60;;;;;;5074711;28;20048;-68
2023/06/15 16:18:06;;;;;;;3.75;3.15;;;27.10;54.70;;;;;;5076009;28;20388;-68
2023/06/15 16:20:31;;;;;;;4.65;2.83;;;27.10;54.80;;;;;;5075268;28;20048;-68
2023/06/15 16:22:57;;;;;;;4.55;2.80;;;27.10;55.00;;;;;;5067939;28;20010;-68
2023/06/15 16:25:22;;;;;;;3.67;3.30;;;27.20;55.20;;;;;;5055551;28;20028;-69
2023/06/15 16:27:48;;;;;;;5.15;2.53;;;27.10;55.00;;;;;;5070381;28;20021;-67
2023/06/15 16:30:14;;;;;;;6.10;3.38;;;27.20;54.20;;;;;;5073052;28;20029;-68
2023/06/15 16:32:40;;;;;;;5.55;3.13;;;27.30;54.20;;;;;;5075249;28;20056;-68
2023/06/15 16:35:06;;;;;;;4.25;3.03;;;27.30;53.80;;;;;;5056370;28;20021;-68
2023/06/15 16:37:32;;;;;;;4.10;3.15;;;27.40;52.90;;;;;;5084071;28;20112;-68
2023/06/15 16:40:01;;;;;;;4.25;3.25;;;27.30;54.40;;;;;;5073939;28;20119;-68
2023/06/15 16:42:29;;;;;;;10.77;3.63;;;27.30;54.80;;;;;;5079425;28;20056;-66
2023/06/15 16:44:56;;;;;;;5.10;3.00;;;27.30;54.50;;;;;;5088778;22;20089;-70
2023/06/15 16:47:22;;;;;;;4.22;2.92;;;27.20;54.60;;;;;;5074246;28;20040;-70
2023/06/15 16:49:49;;;;;;;5.00;3.10;;;27.10;55.00;;;;;;5073349;28;20021;-71
2023/06/15 16:52:17;;;;;;;4.03;3.13;;;27.00;55.10;;;;;;5090975;28;20035;-71
2023/06/15 16:54:44;;;;;;;4.00;2.78;;;26.90;55.10;;;;;;5077283;28;20028;-70
2023/06/15 16:57:11;;;;;;;3.80;3.25;;;26.90;55.40;;;;;;5066474;28;20028;-70
2023/06/15 16:59:40;;;;;;;5.07;3.65;;;26.90;55.40;;;;;;5063570;28;20031;-72
2023/06/15 17:02:07;;;;;;;9.35;6.07;;;26.90;53.50;;;;;;5069397;28;20179;-71
2023/06/15 17:04:34;;;;;;;3.30;3.00;;;26.80;53.60;;;;;;5056880;28;20114;-70
2023/06/15 17:06:59;;;;;;;3.42;2.92;;;26.70;53.50;;;;;;5077032;28;20468;-70
2023/06/15 17:09:26;;;;;;;6.55;3.50;;;26.60;53.80;;;;;;5094991;28;20085;-71
2023/06/15 17:11:52;;;;;;;5.30;3.15;;;26.60;53.90;;;;;;5076830;28;20031;-72
2023/06/15 17:14:18;;;;;;;3.78;2.85;;;26.60;53.90;;;;;;5095334;28;20502;-69
2023/06/15 17:16:48;;;;;;;6.55;2.95;;;26.70;54.60;;;;;;5074203;28;20483;-69
2023/06/15 17:19:14;;;;;;;4.32;2.50;;;26.60;54.10;;;;;;5055880;28;20021;-69
2023/06/15 17:21:41;;;;;;;4.68;3.10;;;26.60;53.40;;;;;;5056368;28;20028;-70
2023/06/15 17:24:07;;;;;;;6.45;2.70;;;26.70;53.80;;;;;;5094967;28;20035;-69
2023/06/15 17:26:34;;;;;;;3.60;3.00;;;26.70;53.60;;;;;;5063839;28;20073;-69
2023/06/15 17:29:00;;;;;;;4.85;3.17;;;26.70;53.70;;;;;;5068781;28;20024;-71
2023/06/15 17:31:26;;;;;;;5.13;3.25;;;26.70;53.80;;;;;;5058863;28;20431;-69
2023/06/15 17:33:52;;;;;;;3.97;3.20;;;26.60;54.40;;;;;;5090728;28;20036;-69
2023/06/15 17:36:17;;;;;;;3.70;2.85;;;26.60;54.60;;;;;;5076464;28;20020;-71
2023/06/15 17:38:43;;;;;;;5.32;3.15;;;26.50;54.00;;;;;;5076837;28;20456;-72
2023/06/15 17:41:11;;;;;;;5.75;3.30;;;26.40;54.50;;;;;;5076727;28;20055;-72
2023/06/15 17:43:39;;;;;;;4.68;3.03;;;26.40;54.80;;;;;;5073895;28;20373;-70
2023/06/15 17:46:04;;;;;;;6.10;3.20;;;26.40;55.00;;;;;;5040447;28;20036;-70
2023/06/15 17:48:30;;;;;;;5.13;3.63;;;26.40;55.20;;;;;;5056499;28;20024;-68
2023/06/15 17:50:56;;;;;;;4.18;3.38;;;26.30;55.60;;;;;;5055230;28;20021;-73
2023/06/15 17:53:23;;;;;;;4.28;2.90;;;26.30;55.60;;;;;;5052283;28;20124;-73
2023/06/15 17:55:50;;;;;;;3.70;3.05;;;26.20;55.60;;;;;;5036243;28;20025;-71
2023/06/15 17:58:17;;;;;;;6.32;3.53;;;26.20;55.80;;;;;;5036150;28;20017;-72
2023/06/15 18:00:43;;;;;;;5.03;3.50;;;26.10;56.20;;;;;;5036026;28;20025;-72
2023/06/15 18:03:09;;;;;;;5.20;3.55;;;26.10;56.60;;;;;;5035746;28;20028;-72
2023/06/15 18:05:34;;;;;;;;;;;26.10;56.10;;;;;;5054323;28;20017;-72
2023/06/15 18:08:00;;;;;;;4.35;3.15;;;26.10;55.50;;;;;;5036546;28;19911;-71
2023/06/15 18:10:26;;;;;;;4.30;3.50;;;26.00;55.00;;;;;;5036362;28;20501;-71
2023/06/15 18:12:51;;;;;;;;;;;25.90;54.20;;;;;;5048423;28;20020;-72
2023/06/15 18:15:17;;;;;;;4.07;3.22;;;25.90;54.10;;;;;;5052722;28;19913;-72
2023/06/15 18:17:43;;;;;;;6.57;3.10;;;25.80;54.20;;;;;;5053515;28;20029;-72
2023/06/15 18:20:09;;;;;;;4.97;3.50;;;25.80;54.50;;;;;;5070512;28;20024;-70
2023/06/15 18:22:35;;;;;;;6.93;4.95;;;25.70;54.00;;;;;;5057834;28;20077;-72
2023/06/15 18:25:00;;;;;;;;;;;25.70;54.20;;;;;;5055712;28;20021;-71
2023/06/15 18:27:26;;;;;;;5.03;3.47;;;25.60;54.10;;;;;;5055459;28;20358;-71
2023/06/15 18:29:52;;;;;;;5.85;5.25;;;25.70;54.50;;;;;;5054968;28;20024;-72
2023/06/15 18:32:18;;;;;;;4.85;3.17;;;25.60;54.10;;;;;;5051080;28;20469;-72
2023/06/15 18:34:48;;;;;;;;;;;25.60;54.10;;;;;;5073942;28;20071;-74
2023/06/15 18:37:13;;;;;;;4.93;4.15;;;25.50;54.20;;;;;;5066126;28;19908;-71
2023/06/15 18:39:39;;;;;;;;;;;25.40;54.40;;;;;;5084850;28;20025;-72
2023/06/15 18:42:05;;;;;;;5.38;3.83;;;25.40;54.30;;;;;;5056000;28;19909;-72
2023/06/15 18:44:31;;;;;;;6.57;5.43;;;25.40;54.40;;;;;;5073432;28;20124;-71
2023/06/15 18:46:57;;;;;;;;;;;25.30;54.50;;;;;;5057311;28;20060;-71
2023/06/15 18:49:22;;;;;;;5.15;4.60;;;25.30;54.60;;;;;;5044748;28;19954;-71
2023/06/15 18:51:48;;;;;;;;;;;25.30;54.60;;;;;;5044629;28;20025;-72
2023/06/15 18:54:13;;;;;;;6.57;3.58;;;25.20;54.70;;;;;;5053281;28;20288;-72
2023/06/15 18:56:39;;;;;;;;;;;25.10;54.80;;;;;;5035515;28;20059;-71
2023/06/15 18:59:05;;;;;;;4.35;3.83;;;25.10;54.90;;;;;;5050650;28;19999;-71
2023/06/15 19:01:31;;;;;;;4.60;3.83;;;25.00;55.30;;;;;;5071301;28;20020;-72
2023/06/15 19:03:56;;;;;;;;;;;25.00;55.40;;;;;;5062353;28;20046;-69
2023/06/15 19:06:22;;;;;;;10.23;6.63;;;24.90;55.50;;;;;;5093538;28;19908;-71
2023/06/15 19:08:47;;;;;;;;;;;24.90;55.80;;;;;;5075665;28;20104;-73
2023/06/15 19:11:13;;;;;;;8.05;5.28;;;24.80;56.10;;;;;;5046898;28;20349;-72
2023/06/15 19:13:39;;;;;;;;;;;24.80;56.30;;;;;;5055385;28;20463;-72
2023/06/15 19:16:04;;;;;;;4.72;3.85;;;24.80;56.60;;;;;;5046481;28;19904;-71
2023/06/15 19:18:31;;;;;;;;;;;24.70;56.80;;;;;;5055590;28;20040;-72
2023/06/15 19:20:57;;;;;;;6.17;3.73;;;24.70;56.90;;;;;;5054920;28;19904;-70
2023/06/15 19:23:23;;;;;;;7.72;4.13;;;24.60;57.20;;;;;;5050425;28;20382;-71
2023/06/15 19:25:52;;;;;;;;;;;24.60;57.30;;;;;;5049424;28;20024;-71
2023/06/15 19:28:20;;;;;;;5.40;4.30;;;24.50;57.60;;;;;;5073515;28;19939;-70
2023/06/15 19:30:45;;;;;;;8.07;5.00;;;24.40;57.90;;;;;;5055087;28;20101;-71
2023/06/15 19:33:11;;;;;;;;;;;24.40;58.30;;;;;;5055974;28;20056;-70
2023/06/15 19:35:39;;;;;;;6.03;3.97;;;24.40;58.10;;;;;;5055410;28;19905;-71
2023/06/15 19:38:04;;;;;;;8.77;4.80;;;24.30;58.50;;;;;;5054827;28;20606;-71
2023/06/15 19:40:30;;;;;;;;;;;24.20;58.60;;;;;;5070930;28;20029;-71
2023/06/15 19:42:55;;;;;;;9.02;3.88;;;24.20;58.70;;;;;;5050150;28;19908;-71
2023/06/15 19:45:21;;;;;;;;;;;24.20;58.90;;;;;;5058236;28;20060;-71
2023/06/15 19:47:46;;;;;;;5.60;3.63;;;24.10;59.00;;;;;;5040885;28;20010;-71
2023/06/15 19:50:12;;;;;;;;;;;24.10;59.00;;;;;;5057178;28;20021;-70
2023/06/15 19:52:37;;;;;;;5.55;3.90;;;24.10;59.30;;;;;;5041128;28;19980;-70
2023/06/15 19:55:03;;;;;;;;;;;24.00;59.50;;;;;;5039223;28;20028;-71
2023/06/15 19:57:28;;;;;;;5.60;4.40;;;23.90;59.80;;;;;;5053182;28;19905;-71
2023/06/15 19:59:54;;;;;;;;;;;23.80;60.30;;;;;;5056223;28;20108;-70
2023/06/15 20:02:19;;;;;;;5.53;3.63;;;23.80;60.40;;;;;;5054936;28;19950;-71
2023/06/15 20:04:45;;;;;;;;;;;23.70;60.40;;;;;;5038713;28;20053;-71
2023/06/15 20:07:10;;;;;;;5.35;4.10;;;23.70;60.70;;;;;;5056299;28;20396;-70
2023/06/15 20:09:36;;;;;;;;;;;23.70;60.60;;;;;;5057869;28;20047;-70
2023/06/15 20:12:02;;;;;;;5.57;3.70;;;23.60;60.70;;;;;;5058169;28;20003;-71
2023/06/15 20:14:28;;;;;;;;;;;23.50;60.60;;;;;;5059424;28;20025;-71
2023/06/15 20:16:53;;;;;;;7.25;4.00;;;23.50;60.70;;;;;;5056315;28;19983;-71
2023/06/15 20:19:19;;;;;;;;;;;23.50;60.60;;;;;;5039456;28;20016;-70
2023/06/15 20:21:45;;;;;;;7.10;4.40;;;23.40;61.00;;;;;;5054907;28;20284;-70
2023/06/15 20:24:11;;;;;;;;;;;23.30;61.20;;;;;;5056528;28;20021;-69
2023/06/15 20:26:36;;;;;;;7.68;3.90;;;23.30;61.40;;;;;;5054523;28;19936;-70
2023/06/15 20:29:02;;;;;;;5.90;4.18;;;23.30;61.50;;;;;;5054751;28;20063;-70
2023/06/15 20:31:28;;;;;;;4.90;4.35;;;23.20;61.70;;;;;;5055246;28;20028;-70
2023/06/15 20:33:53;;;;;;;;;;;23.20;61.80;;;;;;5056728;28;20024;-70
2023/06/15 20:36:19;;;;;;;6.65;3.97;;;23.10;62.10;;;;;;5055783;28;19939;-70
2023/06/15 20:38:45;;;;;;;;;;;23.10;62.30;;;;;;5039462;28;20044;-70
2023/06/15 20:41:11;;;;;;;6.40;3.90;;;23.00;62.50;;;;;;5056110;28;19911;-70
2023/06/15 20:43:36;;;;;;;;;;;23.00;62.80;;;;;;5056551;28;20036;-70
2023/06/15 20:46:02;;;;;;;8.73;5.47;;;22.90;62.80;;;;;;5053914;28;19912;-70
2023/06/15 20:48:35;;;;;;;9.52;4.25;;;22.90;63.00;;;;;;5054153;28;20053;-70
2023/06/15 20:51:06;;;;;;;8.35;4.93;;;22.90;63.30;;;;;;5054698;28;20029;-70
2023/06/15 20:53:34;;;;;;;6.13;4.93;;;22.80;63.20;;;;;;5055747;28;20028;-70
2023/06/15 20:56:03;;;;;;;8.00;4.80;;;22.90;63.30;;;;;;5057281;28;20028;-70
2023/06/15 20:58:30;;;;;;;7.72;4.40;;;22.90;63.30;;;;;;5057120;28;20370;-70
2023/06/15 21:00:57;;;;;;;7.47;5.50;;;22.90;63.50;;;;;;5057205;28;20029;-69
2023/06/15 21:03:22;;;;;;;7.57;5.00;;;22.90;63.60;;;;;;5056719;28;20024;-70
2023/06/15 21:05:48;;;;;;;9.50;5.15;;;22.90;63.80;;;;;;5074916;28;20108;-70
2023/06/15 21:08:14;;;;;;;5.95;4.97;;;22.90;63.90;;;;;;5056977;28;20370;-70
2023/06/15 21:10:39;;;;;;;7.22;4.90;;;22.80;64.00;;;;;;5074852;28;20020;-69
2023/06/15 21:13:05;;;;;;;;;;;22.80;64.10;;;;;;5057350;28;20104;-70
2023/06/15 21:15:32;;;;;;;6.97;5.03;;;22.80;64.40;;;;;;5056617;28;20003;-70
2023/06/15 21:17:59;;;;;;;7.47;5.22;;;22.80;64.50;;;;;;5074505;28;20032;-69
2023/06/15 21:20:25;;;;;;;6.95;5.10;;;22.70;64.70;;;;;;5074807;28;20029;-70
2023/06/15 21:22:50;;;;;;;8.07;5.97;;;22.70;64.60;;;;;;5056742;28;20161;-70
2023/06/15 21:25:16;;;;;;;;;;;22.70;64.80;;;;;;5075219;28;20032;-70
2023/06/15 21:27:41;;;;;;;7.35;4.82;;;22.70;65.80;;;;;;5074461;28;19909;-70
